Relevés horaires Chievres (Belgique)


Relevés horaires à Chievres - Vendredi 08 Déc. 2017
Heure UTC1 Température [°C] Vent [km/h] Hum. [%] Pres.4 [hPa] Visi. [Km] Nébu. [octa] Préc.5 [mm] Cond.
2m. Res. Ros. Dir.2 Vit. Moy. Raf.3
23:00 -0.7 -2.7 -2.2 OSO 5.6 -- 9.3 90 1016.6(0.4/3h) 20 -- -- --
22:00 -0.4 -2.3 -2.1 OSO 5.6 -- 9.3 88 1016.2(0.5/3h) 20 -- -- --
21:00 -0.1 -2 -2.3 OSO 5.6 -- 13.0 85 1016.2(0.8/3h) 20 -- -- --
20:00 0.7 -1.7 -2.4 OSO 7.4 -- 13.0 80 1016.1(1.0/3h) 20 -- -- --
19:00 0.8 -1.6 -2.1 OSO 7.4 -- 11.1 81 1015.7(0.9/3h) 20 -- -- --
18:00 1.0 -0.7 -1.7 OSO 5.6 -- 22.2 82 1015.3(1.1/3h) 20 -- trace/12h
NA
17:00 1.6 -1.2 -1.6 O 9.3 -- 13.0 79 1015(1.1/3h) 20 -- -- --
16:00 1.8 -1 -1.0 O 9.3 -- 16.7 82 1014.7(1.2/3h) 20 -- -- --
15:00 3.4 0.5 -0.5 O 11.1 -- 22.2 76 1014.2(0.7/3h) 20 -- -- NA
14:00 3.6 0.1 -0.7 ONO 14.8 -- 22.2 73 1013.7(0.6/3h) 20 -- -- NA
13:00 4.4 2.1 0.4 O 9.3 -- 20.4 75 1013.2(0.4/3h) 20 -- -- --
12:00 4.0 0.9 -- ONO 13.0 -- 22.2 -- 1013.3(1.0/3h) 20 -- -- --
11:00 3.4 0.9 1.1 O 9.3 -- 18.5 85 1013.1(1.1/3h) 20 -- -- --
10:00 3.0 1 -0.1 OSO 7.4 -- 20.4 80 1012.8(1.0/3h) 19 -- -- --
09:00 2.4 -0.7 -0.5 OSO 11.1 -- 16.7 81 1012.3(0.8/3h) 20 -- -- --
08:00 1.8 -0.4 -0.8 OSO 7.4 -- 13.0 83 1012(0.2/3h) 20 -- -- --
07:00 1.8 -1.4 -0.3 SO 11.1 -- 13.0 86 1011.7(-0.5/3h) 20 -- -- --
06:00 1.1 -1.3 -- SO 7.4 -- 14.8 -- 1011.6(-1.0/3h) 18 -- 1/12h
--
05:00 2.0 -0.2 0.2 OSO 7.4 -- 11.1 88 1011.7(-0.6/3h) 20 -- -- --
04:00 2.1 0.5 0.7 OSO 5.6 -- 11.1 90 1012.3(0.4/3h) 18 -- -- --
03:00 2.9 0.8 1.1 O 7.4 -- 14.8 88 1012.5(0.8/3h) 16 -- -- --
02:00 3.4 1.4 1.4 O 7.4 -- 11.1 87 1012.3(1.0/3h) 16 -- -- --
01:00 3.7 1.8 1.9 OSO 7.4 -- 14.8 88 1011.8(0.6/3h) 16 -- -- --
00:00 4.5 2.7 2.7 O 7.4 -- 20.4 88 1011.6(0.6/3h) 14 -- 1/6h
NA

1 Coordinated Universal Time. Actuellement il est 20:00 locale et 18:00 UTC.

2 Le vent souffle depuis la direction indiquée vers la direction oposée.

3 Les rafales max. sont disponible 40 min après l'heure du relevé.

4 Pour les stations d'altitude (plus de 600m) le géopotentiel du niveau le plus proche de la pression obligatoire est indiqué.

5 Les stations disposant d'un diffuseur peuvent indiquer "trace". Cela signifie que des précipitations ont touchés le sol mais que la quantité est inférieure à 0.1 mm.

Récapitulatif de la journée
Température [°C] Vent [km/h] Ensoleillement4 [h] Precipitations totale5 [mm] Pression [Hpa]
Min1 Max.2 Moy.3 Max. Min Max.
0.9 4.6 0 22.2 0 h 0 min 0 1011.6 1016.6

1 Température minimale relevée entre 18:00 UTC la veille et 18:00 UTC le jour donné.

2 Température maximale relevée entre 06:00 UTC le jour donné et 06:00 UTC le lendemain.

3 Vent moyen de la journée basé sur les relevés horaires.

4 Ensoleillement en heures relevé entre 06:00 UTC la veille et 06:00 UTC le jour donné.

5 Précipitations totales tombées entre 06:00 UTC la jour donné et 06:00 UTC le lendemain.

Graphiques horaires